ADDS METAR Data INFO
IDs: Format: Raw Decoded Include TAF

Data at: 0718 UTC 24 Jun 2018

KHCD 240715Z AUTO 10003KT 10SM SCT110 18/17 A2983 RMK AO2 T01820169
KHCD 240655Z AUTO 00000KT 10SM CLR 19/17 A2983 RMK AO2 LTG DSNT SW T01850171
KHCD 240635Z AUTO 00000KT 10SM CLR 18/17 A2983 RMK AO2 T01800171
KHCD 240615Z AUTO 00000KT 10SM CLR 19/17 A2982 RMK AO2 T01850173
KHCD 240555Z AUTO 10003KT 10SM CLR 19/18 A2982 RMK AO2 T01890176 10255 20189 402700145
KHCD 240535Z AUTO 00000KT 10SM SCT110 19/18 A2982 RMK AO2 T01900177
KHCD 240515Z AUTO 00000KT 10SM SCT110 19/18 A2982 RMK AO2 T01930178
KHCD 240455Z AUTO 08004KT 10SM SCT120 19/18 A2981 RMK AO2 T01920178
KHCD 240435Z AUTO 00000KT 10SM SCT120 20/18 A2981 RMK AO2 T01950179
KHCD 240415Z AUTO 00000KT 10SM CLR 20/18 A2982 RMK AO2 T02000180
KHCD 240355Z AUTO 00000KT 10SM CLR 20/18 A2981 RMK AO2 T02000178
KHCD 240335Z AUTO 00000KT 10SM CLR 20/18 A2981 RMK AO2 T02020178
KHCD 240315Z AUTO 00000KT 10SM CLR 21/18 A2980 RMK AO2 T02050176
KHCD 240255Z AUTO 00000KT 10SM CLR 21/18 A2980 RMK AO2 T02060175
KHCD 240235Z AUTO 00000KT 10SM CLR 21/17 A2979 RMK AO2 T02130171
KHCD 240215Z AUTO 00000KT 10SM CLR 23/17 A2978 RMK AO2 T02290166
KHCD 240155Z AUTO 15003KT 10SM CLR 23/17 A2978 RMK AO2 T02340167
KHCD 240135Z AUTO 16004KT 10SM CLR 25/17 A2977 RMK AO2 T02450165
KHCD 240115Z AUTO 16003KT 10SM CLR 25/18 A2977 RMK AO2 T02500180
KHCD 240055Z AUTO 14006KT 10SM CLR 25/18 A2976 RMK AO2 T02520176
KHCD 240035Z AUTO 13007KT 10SM CLR 25/17 A2976 RMK AO2 T02510173
KHCD 240015Z AUTO 13006KT 10SM CLR 25/17 A2976 RMK AO2 T02530172
KHCD 232355Z AUTO 13006KT 10SM CLR 26/17 A2976 RMK AO2 T02550170 10270 20247
KHCD 232335Z AUTO 13006KT 10SM CLR 26/17 A2976 RMK AO2 T02550172
KHCD 232315Z AUTO 13005KT 10SM SCT090 25/17 A2976 RMK AO2 T02520170
KHCD 232255Z AUTO 13009KT 10SM SCT049 BKN090 25/17 A2976 RMK AO2 T02510166
KHCD 232236Z AUTO 12008KT 10SM SCT047 BKN075 25/17 A2976 RMK AO2 T02500170
KHCD 232215Z AUTO 13008KT 10SM BKN085 25/17 A2976 RMK AO2 T02510168
KHCD 232155Z AUTO 14005KT 10SM BKN085 26/17 A2976 RMK AO2 T02600173
KHCD 232135Z AUTO 13008KT 10SM SCT049 SCT060 SCT085 26/17 A2976 RMK AO2 T02550169
KHCD 232115Z AUTO 12008KT 10SM SCT047 BKN070 OVC090 26/18 A2976 RMK AO2 T02560175
KHCD 232055Z AUTO 13006KT 10SM SCT042 SCT050 OVC090 26/17 A2976 RMK AO2 T02600174
KHCD 232035Z AUTO 13006KT 10SM SCT042 SCT050 BKN090 26/17 A2977 RMK AO2 T02600173
KHCD 232015Z AUTO 14004KT 10SM SCT044 SCT050 BKN090 27/18 A2977 RMK AO2 T02700177
KHCD 231955Z AUTO 15003KT 10SM SCT042 BKN065 SCT090 26/17 A2977 RMK AO2 T02620172
KHCD 231935Z AUTO 16004KT 10SM SCT042 SCT050 SCT065 26/17 A2978 RMK AO2 T02630172
KHCD 231915Z AUTO 00000KT 10SM CLR 26/17 A2978 RMK AO2 T02610169
KHCD 231855Z AUTO 17003KT 10SM CLR 26/17 A2978 RMK AO2 T02610171
KHCD 231835Z AUTO 19004KT 10SM SCT036 SCT060 26/18 A2979 RMK AO2 T02620180
KHCD 231815Z AUTO 00000KT 10SM CLR 25/17 A2979 RMK AO2 T02480169
KHCD 231755Z AUTO 24004KT 10SM SCT035 SCT044 SCT050 25/17 A2979 RMK AO2 T02500174 10256 20168
KHCD 231735Z AUTO 23003KT 10SM SCT033 26/18 A2979 RMK AO2 T02550184
KHCD 231715Z AUTO 00000KT 10SM SCT030 25/18 A2979 RMK AO2 T02480178
KHCD 231656Z AUTO 20003KT 10SM SCT030 25/18 A2980 RMK AO2 T02500180
KHCD 231635Z AUTO 16003KT 10SM CLR 25/17 A2979 RMK AO2 T02450173
KHCD 231615Z AUTO 00000KT 10SM CLR 24/17 A2979 RMK AO2 T02400172
KHCD 231555Z AUTO 00000KT 10SM CLR 24/18 A2980 RMK AO2 T02390183
KHCD 231535Z AUTO 00000KT 10SM CLR 23/18 A2980 RMK AO2 T02340175
KHCD 231515Z AUTO 00000KT 10SM CLR 23/17 A2980 RMK AO2 T02330173
KHCD 231455Z AUTO 00000KT 10SM CLR 23/17 A2980 RMK AO2 T02300170
KHCD 231435Z AUTO 00000KT 10SM CLR 23/18 A2980 RMK AO2 T02280180
KHCD 231416Z AUTO 23003KT 10SM CLR 22/18 A2980 RMK AO2 T02210183
KHCD 231355Z AUTO 00000KT 10SM CLR 21/18 A2980 RMK AO2 T02120182
KHCD 231335Z AUTO 00000KT 10SM CLR 20/18 A2980 RMK AO2 T02010183
KHCD 231315Z AUTO 00000KT 10SM CLR 19/19 A2980 RMK AO2 T01920186
KHCD 231255Z AUTO 00000KT 10SM CLR 19/18 A2980 RMK AO2 T01850183
KHCD 231235Z AUTO 00000KT 10SM CLR 18/18 A2979 RMK AO2 T01800180
KHCD 231215Z AUTO 00000KT 7SM CLR 17/18 A2979 RMK AO2 T01740175
KHCD 231155Z AUTO 00000KT 7SM CLR 17/17 A2979 RMK AO2 T01670168 10175 20145
KHCD 231135Z AUTO 00000KT 3SM BR CLR 16/16 A2978 RMK AO2 T01550156
KHCD 231115Z AUTO 00000KT 1/4SM FG VV002 15/15 A2979 RMK AO2 T01490151
KHCD 231055Z AUTO 09003KT M1/4SM FG VV000 15/15 A2979 RMK AO2 T01520153
KHCD 231035Z AUTO 00000KT M1/4SM FG VV000 15/15 A2979 RMK AO2 T01470147
KHCD 231015Z AUTO 00000KT 5SM BR CLR 15/15 A2979 RMK AO2 T01500151
KHCD 230955Z AUTO 00000KT 1/4SM FG VV002 15/15 A2979 RMK AO2 T01500150
KHCD 230935Z AUTO 00000KT 1/2SM FG VV005 15/15 A2979 RMK AO2 T01520152
KHCD 230915Z AUTO 00000KT 7SM CLR 15/15 A2980 RMK AO2 T01490149
KHCD 230855Z AUTO 00000KT 4SM BR CLR 15/15 A2980 RMK AO2 T01540154
KHCD 230835Z AUTO 00000KT 1 1/4SM BR VV007 15/15 A2981 RMK AO2 VIS 1/2V4 T01530152
KHCD 230815Z AUTO 00000KT 7SM CLR 15/15 A2981 RMK AO2 T01540153
KHCD 230755Z AUTO 00000KT 7SM CLR 16/16 A2982 RMK AO2 T01610161
KHCD 230735Z AUTO 00000KT 4SM BR CLR 16/16 A2982 RMK AO2 T01580156
KHCD 230715Z AUTO 00000KT 2 1/2SM BR CLR 16/16 A2982 RMK AO2 VIS 1 1/4V5 T01630161
KHCD 230655Z AUTO 00000KT 10SM CLR 17/17 A2982 RMK AO2 T01700167
KHCD 230635Z AUTO 00000KT 10SM CLR 17/16 A2983 RMK AO2 LTG DSNT S T01660164
KHCD 230615Z AUTO 00000KT 10SM CLR 17/17 A2982 RMK AO2 T01720167
KHCD 230555Z AUTO 00000KT 10SM CLR 17/17 A2983 RMK AO2 T01730170 10245 20173 402660160
KHCD 230535Z AUTO 00000KT 10SM CLR 18/17 A2983 RMK AO2 T01750170
KHCD 230515Z AUTO 00000KT 10SM CLR 18/17 A2982 RMK AO2 T01810173
KHCD 230455Z AUTO 00000KT 10SM CLR 19/18 A2981 RMK AO2 T01860176
KHCD 230435Z AUTO 00000KT 10SM CLR 19/17 A2982 RMK AO2 T01920170
KHCD 230415Z AUTO 00000KT 10SM CLR 20/18 A2982 RMK AO2 T01960176
KHCD 230355Z AUTO 00000KT 10SM SCT050 20/18 A2982 RMK AO2 T02030179
KHCD 230335Z AUTO 00000KT 10SM SCT050 BKN060 BKN070 22/18 A2982 RMK AO2 T02150178
KHCD 230315Z AUTO 00000KT 10SM SCT046 BKN060 OVC070 22/18 A2982 RMK AO2 T02150180
KHCD 230255Z AUTO 24004KT 10SM OVC046 22/18 A2982 RMK AO2 T02150180
KHCD 230235Z AUTO 25003KT 10SM SCT050 21/19 A2982 RMK AO2 T02110186
KHCD 230215Z AUTO 00000KT 10SM CLR 22/18 A2980 RMK AO2 T02210179
KHCD 230156Z AUTO 00000KT 10SM CLR 22/18 A2980 RMK AO2 T02230178
KHCD 230135Z AUTO 00000KT 10SM CLR 23/18 A2981 RMK AO2 T02270180
KHCD 230115Z AUTO 16003KT 10SM CLR 23/18 A2980 RMK AO2 T02340180
KHCD 230056Z AUTO 00000KT 10SM CLR 24/18 A2981 RMK AO2 T02370178
KHCD 230035Z AUTO 14003KT 10SM CLR 24/18 A2981 RMK AO2 T02400178
KHCD 230015Z AUTO 12004KT 10SM CLR 25/18 A2982 RMK AO2 T02450176
KHCD 222356Z AUTO 13005KT 10SM CLR 25/18 A2982 RMK AO2 T02450177 10266 20242
KHCD 222335Z AUTO 12008KT 10SM SCT042 26/18 A2982 RMK AO2 T02580176
KHCD 222315Z AUTO 13004KT 10SM SCT042 SCT050 SCT060 26/17 A2982 RMK AO2 T02600170
KHCD 222255Z AUTO 10004KT 10SM SCT042 SCT050 SCT060 27/17 A2983 RMK AO2 T02650172
KHCD 222235Z AUTO 00000KT 10SM CLR 26/17 A2984 RMK AO2 T02620166
KHCD 222215Z AUTO 00000KT 10SM CLR 26/17 A2984 RMK AO2 T02610168
KHCD 222155Z AUTO 00000KT 10SM SCT075 26/17 A2985 RMK AO2 T02570170
KHCD 222135Z AUTO 00000KT 10SM BKN075 26/16 A2986 RMK AO2 T02550162
KHCD 222115Z AUTO 00000KT 10SM SCT065 BKN075 25/17 A2986 RMK AO2 T02510171
KHCD 222055Z AUTO 00000KT 10SM BKN050 OVC075 25/17 A2987 RMK AO2 T02470174
KHCD 222036Z AUTO 00000KT 10SM SCT040 BKN050 OVC065 25/17 A2987 RMK AO2 T02450171
KHCD 222015Z AUTO 00000KT 10SM SCT038 SCT044 OVC065 25/17 A2988 RMK AO2 T02510171
KHCD 221955Z AUTO 00000KT 10SM SCT034 SCT055 BKN075 25/17 A2988 RMK AO2 T02500171
KHCD 221935Z AUTO 00000KT 10SM SCT034 SCT040 25/18 A2989 RMK AO2 T02510175